sensor_id;sensor_type;location;lat;lon;timestamp;P1;durP1;ratioP1;P2;durP2;ratioP2
11675;SDS011;5894;42.768;23.404;2024-02-14T00:01:25;5.37;;;4.23;;
11675;SDS011;5894;42.768;23.404;2024-02-14T00:03:52;4.73;;;4.23;;
11675;SDS011;5894;42.768;23.404;2024-02-14T00:06:18;6.10;;;4.70;;
11675;SDS011;5894;42.768;23.404;2024-02-14T00:08:45;6.40;;;5.10;;
11675;SDS011;5894;42.768;23.404;2024-02-14T00:11:12;7.67;;;6.33;;
11675;SDS011;5894;42.768;23.404;2024-02-14T00:13:41;11.47;;;8.13;;
11675;SDS011;5894;42.768;23.404;2024-02-14T00:16:08;12.03;;;7.53;;
11675;SDS011;5894;42.768;23.404;2024-02-14T00:18:35;9.70;;;7.03;;
11675;SDS011;5894;42.768;23.404;2024-02-14T00:21:02;9.20;;;6.20;;
11675;SDS011;5894;42.768;23.404;2024-02-14T00:23:29;9.37;;;6.77;;
11675;SDS011;5894;42.768;23.404;2024-02-14T00:25:56;10.57;;;7.73;;
11675;SDS011;5894;42.768;23.404;2024-02-14T00:28:23;12.47;;;7.87;;
11675;SDS011;5894;42.768;23.404;2024-02-14T00:30:53;11.20;;;8.03;;
11675;SDS011;5894;42.768;23.404;2024-02-14T00:33:20;9.40;;;7.20;;
11675;SDS011;5894;42.768;23.404;2024-02-14T00:35:47;9.20;;;6.67;;
11675;SDS011;5894;42.768;23.404;2024-02-14T00:38:14;7.70;;;6.43;;
11675;SDS011;5894;42.768;23.404;2024-02-14T00:40:41;8.07;;;6.63;;
11675;SDS011;5894;42.768;23.404;2024-02-14T00:43:08;7.63;;;6.23;;
11675;SDS011;5894;42.768;23.404;2024-02-14T00:45:35;6.63;;;5.43;;
11675;SDS011;5894;42.768;23.404;2024-02-14T00:48:05;8.37;;;6.43;;
11675;SDS011;5894;42.768;23.404;2024-02-14T00:50:33;7.67;;;6.67;;
11675;SDS011;5894;42.768;23.404;2024-02-14T00:53:00;6.83;;;5.83;;
11675;SDS011;5894;42.768;23.404;2024-02-14T00:55:27;7.57;;;6.07;;
11675;SDS011;5894;42.768;23.404;2024-02-14T00:57:54;8.37;;;6.60;;
11675;SDS011;5894;42.768;23.404;2024-02-14T01:00:21;8.80;;;6.70;;
11675;SDS011;5894;42.768;23.404;2024-02-14T01:02:48;7.43;;;5.90;;
11675;SDS011;5894;42.768;23.404;2024-02-14T01:05:16;7.30;;;6.13;;
11675;SDS011;5894;42.768;23.404;2024-02-14T01:07:43;7.90;;;6.10;;
11675;SDS011;5894;42.768;23.404;2024-02-14T01:10:11;6.97;;;6.17;;
11675;SDS011;5894;42.768;23.404;2024-02-14T01:12:38;8.30;;;5.67;;
11675;SDS011;5894;42.768;23.404;2024-02-14T01:15:06;6.70;;;5.70;;
11675;SDS011;5894;42.768;23.404;2024-02-14T01:17:33;7.77;;;6.03;;
11675;SDS011;5894;42.768;23.404;2024-02-14T01:20:03;7.23;;;5.70;;
11675;SDS011;5894;42.768;23.404;2024-02-14T01:22:32;9.67;;;5.77;;
11675;SDS011;5894;42.768;23.404;2024-02-14T01:24:59;8.20;;;6.40;;
11675;SDS011;5894;42.768;23.404;2024-02-14T01:27:26;7.87;;;6.27;;
11675;SDS011;5894;42.768;23.404;2024-02-14T01:29:54;9.50;;;6.43;;
11675;SDS011;5894;42.768;23.404;2024-02-14T01:32:22;8.13;;;6.17;;
11675;SDS011;5894;42.768;23.404;2024-02-14T01:34:51;7.40;;;5.47;;
11675;SDS011;5894;42.768;23.404;2024-02-14T01:37:18;6.30;;;5.70;;
11675;SDS011;5894;42.768;23.404;2024-02-14T01:39:47;6.77;;;5.47;;
11675;SDS011;5894;42.768;23.404;2024-02-14T01:42:14;6.80;;;5.60;;
11675;SDS011;5894;42.768;23.404;2024-02-14T01:44:41;8.27;;;5.87;;
11675;SDS011;5894;42.768;23.404;2024-02-14T01:47:08;7.93;;;6.40;;
11675;SDS011;5894;42.768;23.404;2024-02-14T01:49:37;8.77;;;7.00;;
11675;SDS011;5894;42.768;23.404;2024-02-14T01:52:09;7.43;;;6.07;;
11675;SDS011;5894;42.768;23.404;2024-02-14T01:54:36;7.67;;;6.50;;
11675;SDS011;5894;42.768;23.404;2024-02-14T01:57:05;7.17;;;6.07;;
11675;SDS011;5894;42.768;23.404;2024-02-14T01:59:33;9.13;;;5.77;;
11675;SDS011;5894;42.768;23.404;2024-02-14T02:02:01;6.80;;;6.07;;
11675;SDS011;5894;42.768;23.404;2024-02-14T02:04:28;7.07;;;5.90;;
11675;SDS011;5894;42.768;23.404;2024-02-14T02:06:55;7.73;;;6.63;;
11675;SDS011;5894;42.768;23.404;2024-02-14T02:09:21;9.00;;;6.60;;
11675;SDS011;5894;42.768;23.404;2024-02-14T02:11:49;6.97;;;6.10;;
11675;SDS011;5894;42.768;23.404;2024-02-14T02:14:20;7.57;;;6.53;;
11675;SDS011;5894;42.768;23.404;2024-02-14T02:16:47;7.83;;;6.67;;
11675;SDS011;5894;42.768;23.404;2024-02-14T02:19:14;9.83;;;7.23;;
11675;SDS011;5894;42.768;23.404;2024-02-14T02:21:41;9.33;;;6.73;;
11675;SDS011;5894;42.768;23.404;2024-02-14T02:24:10;7.80;;;6.43;;
11675;SDS011;5894;42.768;23.404;2024-02-14T02:26:37;8.50;;;6.43;;
11675;SDS011;5894;42.768;23.404;2024-02-14T02:29:04;8.57;;;6.60;;
11675;SDS011;5894;42.768;23.404;2024-02-14T02:31:31;8.73;;;7.00;;
11675;SDS011;5894;42.768;23.404;2024-02-14T02:33:59;8.87;;;6.67;;
11675;SDS011;5894;42.768;23.404;2024-02-14T02:36:26;7.93;;;6.60;;
11675;SDS011;5894;42.768;23.404;2024-02-14T02:38:55;7.80;;;6.43;;
11675;SDS011;5894;42.768;23.404;2024-02-14T02:41:24;7.20;;;6.33;;
11675;SDS011;5894;42.768;23.404;2024-02-14T02:43:52;9.83;;;6.73;;
11675;SDS011;5894;42.768;23.404;2024-02-14T02:46:19;7.23;;;6.20;;
11675;SDS011;5894;42.768;23.404;2024-02-14T02:48:47;7.27;;;6.47;;
11675;SDS011;5894;42.768;23.404;2024-02-14T02:51:15;8.63;;;7.27;;
11675;SDS011;5894;42.768;23.404;2024-02-14T02:53:43;9.53;;;7.27;;
11675;SDS011;5894;42.768;23.404;2024-02-14T02:56:09;7.37;;;6.50;;
11675;SDS011;5894;42.768;23.404;2024-02-14T02:58:39;8.00;;;7.10;;
11675;SDS011;5894;42.768;23.404;2024-02-14T03:01:07;7.83;;;6.57;;
11675;SDS011;5894;42.768;23.404;2024-02-14T03:03:34;8.37;;;7.07;;
11675;SDS011;5894;42.768;23.404;2024-02-14T03:06:03;8.73;;;7.00;;
11675;SDS011;5894;42.768;23.404;2024-02-14T03:08:31;8.77;;;7.23;;
11675;SDS011;5894;42.768;23.404;2024-02-14T03:11:02;9.80;;;7.03;;
11675;SDS011;5894;42.768;23.404;2024-02-14T03:13:30;8.77;;;6.73;;
11675;SDS011;5894;42.768;23.404;2024-02-14T03:15:59;8.43;;;7.20;;
11675;SDS011;5894;42.768;23.404;2024-02-14T03:18:26;7.60;;;6.50;;
11675;SDS011;5894;42.768;23.404;2024-02-14T03:20:52;11.10;;;7.07;;
11675;SDS011;5894;42.768;23.404;2024-02-14T03:23:19;8.60;;;7.20;;
11675;SDS011;5894;42.768;23.404;2024-02-14T03:25:47;7.00;;;6.27;;
11675;SDS011;5894;42.768;23.404;2024-02-14T03:28:14;8.50;;;6.87;;
11675;SDS011;5894;42.768;23.404;2024-02-14T03:30:41;7.60;;;6.77;;
11675;SDS011;5894;42.768;23.404;2024-02-14T03:33:10;8.10;;;7.30;;
11675;SDS011;5894;42.768;23.404;2024-02-14T03:35:37;8.50;;;7.07;;
11675;SDS011;5894;42.768;23.404;2024-02-14T03:38:04;7.57;;;6.77;;
11675;SDS011;5894;42.768;23.404;2024-02-14T03:40:33;8.87;;;7.23;;
11675;SDS011;5894;42.768;23.404;2024-02-14T03:43:01;8.73;;;7.33;;
11675;SDS011;5894;42.768;23.404;2024-02-14T03:45:28;8.73;;;6.83;;
11675;SDS011;5894;42.768;23.404;2024-02-14T03:47:55;9.00;;;7.07;;
11675;SDS011;5894;42.768;23.404;2024-02-14T03:50:24;8.40;;;6.77;;
11675;SDS011;5894;42.768;23.404;2024-02-14T03:52:51;8.10;;;7.07;;
11675;SDS011;5894;42.768;23.404;2024-02-14T03:55:18;8.90;;;6.93;;
11675;SDS011;5894;42.768;23.404;2024-02-14T03:57:45;8.60;;;7.37;;
11675;SDS011;5894;42.768;23.404;2024-02-14T04:00:12;8.23;;;7.03;;
11675;SDS011;5894;42.768;23.404;2024-02-14T04:02:40;8.77;;;7.87;;
11675;SDS011;5894;42.768;23.404;2024-02-14T04:05:07;9.03;;;7.63;;
11675;SDS011;5894;42.768;23.404;2024-02-14T04:07:35;10.80;;;8.37;;
11675;SDS011;5894;42.768;23.404;2024-02-14T04:10:03;10.07;;;8.03;;
11675;SDS011;5894;42.768;23.404;2024-02-14T04:12:30;8.97;;;7.67;;
11675;SDS011;5894;42.768;23.404;2024-02-14T04:14:57;10.97;;;8.03;;
11675;SDS011;5894;42.768;23.404;2024-02-14T04:17:24;8.67;;;7.67;;
11675;SDS011;5894;42.768;23.404;2024-02-14T04:19:51;9.30;;;7.67;;
11675;SDS011;5894;42.768;23.404;2024-02-14T04:22:18;9.73;;;8.10;;
11675;SDS011;5894;42.768;23.404;2024-02-14T04:24:47;9.07;;;7.47;;
11675;SDS011;5894;42.768;23.404;2024-02-14T04:27:14;8.73;;;7.10;;
11675;SDS011;5894;42.768;23.404;2024-02-14T04:29:44;8.50;;;7.60;;
11675;SDS011;5894;42.768;23.404;2024-02-14T04:32:11;8.60;;;7.43;;
11675;SDS011;5894;42.768;23.404;2024-02-14T04:34:39;9.53;;;7.67;;
11675;SDS011;5894;42.768;23.404;2024-02-14T04:37:07;8.30;;;7.20;;
11675;SDS011;5894;42.768;23.404;2024-02-14T04:39:37;9.40;;;7.63;;
11675;SDS011;5894;42.768;23.404;2024-02-14T04:42:06;10.60;;;7.73;;
11675;SDS011;5894;42.768;23.404;2024-02-14T04:44:33;10.23;;;8.10;;
11675;SDS011;5894;42.768;23.404;2024-02-14T04:47:02;9.67;;;7.57;;
11675;SDS011;5894;42.768;23.404;2024-02-14T04:49:30;10.10;;;7.77;;
11675;SDS011;5894;42.768;23.404;2024-02-14T04:51:57;11.33;;;8.80;;
11675;SDS011;5894;42.768;23.404;2024-02-14T04:54:24;11.07;;;8.30;;
11675;SDS011;5894;42.768;23.404;2024-02-14T04:56:51;10.20;;;8.57;;
11675;SDS011;5894;42.768;23.404;2024-02-14T04:59:19;10.03;;;8.47;;
11675;SDS011;5894;42.768;23.404;2024-02-14T05:01:46;11.87;;;9.37;;
11675;SDS011;5894;42.768;23.404;2024-02-14T05:04:14;11.03;;;9.23;;
11675;SDS011;5894;42.768;23.404;2024-02-14T05:06:42;12.70;;;8.73;;
11675;SDS011;5894;42.768;23.404;2024-02-14T05:09:09;11.43;;;8.87;;
11675;SDS011;5894;42.768;23.404;2024-02-14T05:11:37;10.87;;;9.40;;
11675;SDS011;5894;42.768;23.404;2024-02-14T05:14:03;11.00;;;9.33;;
11675;SDS011;5894;42.768;23.404;2024-02-14T05:16:32;11.50;;;8.90;;
11675;SDS011;5894;42.768;23.404;2024-02-14T05:18:59;10.97;;;9.43;;
11675;SDS011;5894;42.768;23.404;2024-02-14T05:21:26;11.60;;;9.10;;
11675;SDS011;5894;42.768;23.404;2024-02-14T05:23:53;10.73;;;8.77;;
11675;SDS011;5894;42.768;23.404;2024-02-14T05:26:20;10.73;;;8.60;;
11675;SDS011;5894;42.768;23.404;2024-02-14T05:28:47;11.20;;;8.50;;
11675;SDS011;5894;42.768;23.404;2024-02-14T05:31:14;10.77;;;8.73;;
11675;SDS011;5894;42.768;23.404;2024-02-14T05:33:43;10.97;;;9.10;;
11675;SDS011;5894;42.768;23.404;2024-02-14T05:36:10;11.77;;;9.87;;
11675;SDS011;5894;42.768;23.404;2024-02-14T05:38:37;11.73;;;9.80;;
11675;SDS011;5894;42.768;23.404;2024-02-14T05:41:04;12.07;;;9.60;;
11675;SDS011;5894;42.768;23.404;2024-02-14T05:43:32;12.17;;;10.23;;
11675;SDS011;5894;42.768;23.404;2024-02-14T05:46:00;14.50;;;11.77;;
11675;SDS011;5894;42.768;23.404;2024-02-14T05:48:27;13.07;;;11.03;;
11675;SDS011;5894;42.768;23.404;2024-02-14T05:50:55;14.63;;;11.80;;
11675;SDS011;5894;42.768;23.404;2024-02-14T05:53:22;13.73;;;11.10;;
11675;SDS011;5894;42.768;23.404;2024-02-14T05:55:49;12.53;;;10.83;;
11675;SDS011;5894;42.768;23.404;2024-02-14T05:58:16;11.93;;;10.43;;
11675;SDS011;5894;42.768;23.404;2024-02-14T06:00:43;12.87;;;10.80;;
11675;SDS011;5894;42.768;23.404;2024-02-14T06:03:10;11.67;;;9.90;;
11675;SDS011;5894;42.768;23.404;2024-02-14T06:05:37;12.50;;;10.83;;
11675;SDS011;5894;42.768;23.404;2024-02-14T06:08:05;15.80;;;11.13;;
11675;SDS011;5894;42.768;23.404;2024-02-14T06:10:32;14.73;;;12.43;;
11675;SDS011;5894;42.768;23.404;2024-02-14T06:13:00;14.13;;;11.13;;
11675;SDS011;5894;42.768;23.404;2024-02-14T06:15:27;14.47;;;10.37;;
11675;SDS011;5894;42.768;23.404;2024-02-14T06:17:54;13.57;;;10.27;;
11675;SDS011;5894;42.768;23.404;2024-02-14T06:20:21;13.27;;;10.73;;
11675;SDS011;5894;42.768;23.404;2024-02-14T06:22:48;13.97;;;10.97;;
11675;SDS011;5894;42.768;23.404;2024-02-14T06:25:16;11.77;;;10.40;;
11675;SDS011;5894;42.768;23.404;2024-02-14T06:27:43;13.70;;;10.60;;
11675;SDS011;5894;42.768;23.404;2024-02-14T06:30:10;14.77;;;11.30;;
11675;SDS011;5894;42.768;23.404;2024-02-14T06:32:38;13.60;;;10.57;;
11675;SDS011;5894;42.768;23.404;2024-02-14T06:35:05;12.43;;;10.60;;
11675;SDS011;5894;42.768;23.404;2024-02-14T06:37:33;13.07;;;10.57;;
11675;SDS011;5894;42.768;23.404;2024-02-14T06:39:59;14.70;;;11.50;;
11675;SDS011;5894;42.768;23.404;2024-02-14T06:42:28;16.23;;;12.53;;
11675;SDS011;5894;42.768;23.404;2024-02-14T06:44:55;14.30;;;11.90;;
11675;SDS011;5894;42.768;23.404;2024-02-14T06:47:22;15.13;;;12.50;;
11675;SDS011;5894;42.768;23.404;2024-02-14T06:49:49;18.40;;;13.10;;
11675;SDS011;5894;42.768;23.404;2024-02-14T06:52:15;13.90;;;11.57;;
11675;SDS011;5894;42.768;23.404;2024-02-14T06:54:42;12.87;;;10.20;;
11675;SDS011;5894;42.768;23.404;2024-02-14T06:57:10;13.70;;;10.63;;
11675;SDS011;5894;42.768;23.404;2024-02-14T06:59:39;11.03;;;9.87;;
11675;SDS011;5894;42.768;23.404;2024-02-14T07:02:06;11.70;;;9.90;;
11675;SDS011;5894;42.768;23.404;2024-02-14T07:04:32;11.47;;;9.33;;
11675;SDS011;5894;42.768;23.404;2024-02-14T07:06:59;12.53;;;10.07;;
11675;SDS011;5894;42.768;23.404;2024-02-14T07:09:26;11.33;;;10.00;;
11675;SDS011;5894;42.768;23.404;2024-02-14T07:11:54;12.07;;;9.67;;
11675;SDS011;5894;42.768;23.404;2024-02-14T07:14:22;11.43;;;9.30;;
11675;SDS011;5894;42.768;23.404;2024-02-14T07:16:50;10.97;;;8.80;;
11675;SDS011;5894;42.768;23.404;2024-02-14T07:19:17;10.20;;;9.07;;
11675;SDS011;5894;42.768;23.404;2024-02-14T07:21:44;10.63;;;8.97;;
11675;SDS011;5894;42.768;23.404;2024-02-14T07:24:11;11.50;;;9.47;;
11675;SDS011;5894;42.768;23.404;2024-02-14T07:26:38;10.67;;;8.70;;
11675;SDS011;5894;42.768;23.404;2024-02-14T07:29:06;10.93;;;9.53;;
11675;SDS011;5894;42.768;23.404;2024-02-14T07:31:33;9.97;;;8.93;;
11675;SDS011;5894;42.768;23.404;2024-02-14T07:34:01;13.13;;;10.20;;
11675;SDS011;5894;42.768;23.404;2024-02-14T07:36:29;10.80;;;9.33;;
11675;SDS011;5894;42.768;23.404;2024-02-14T07:38:56;10.60;;;8.87;;
11675;SDS011;5894;42.768;23.404;2024-02-14T07:41:23;12.23;;;8.90;;
11675;SDS011;5894;42.768;23.404;2024-02-14T07:43:50;11.33;;;8.60;;
11675;SDS011;5894;42.768;23.404;2024-02-14T07:46:18;9.50;;;8.30;;
11675;SDS011;5894;42.768;23.404;2024-02-14T07:48:45;11.00;;;8.50;;
11675;SDS011;5894;42.768;23.404;2024-02-14T07:51:15;11.47;;;8.60;;
11675;SDS011;5894;42.768;23.404;2024-02-14T07:53:42;10.00;;;8.67;;
11675;SDS011;5894;42.768;23.404;2024-02-14T07:56:09;10.93;;;8.80;;
11675;SDS011;5894;42.768;23.404;2024-02-14T07:58:36;14.87;;;10.57;;
11675;SDS011;5894;42.768;23.404;2024-02-14T08:01:03;16.90;;;10.90;;
11675;SDS011;5894;42.768;23.404;2024-02-14T08:03:30;31.67;;;17.07;;
11675;SDS011;5894;42.768;23.404;2024-02-14T08:05:57;36.17;;;18.23;;
11675;SDS011;5894;42.768;23.404;2024-02-14T08:08:27;32.93;;;18.90;;
11675;SDS011;5894;42.768;23.404;2024-02-14T08:10:54;52.07;;;24.73;;
11675;SDS011;5894;42.768;23.404;2024-02-14T08:13:21;41.47;;;21.67;;
11675;SDS011;5894;42.768;23.404;2024-02-14T08:15:48;52.60;;;26.10;;
11675;SDS011;5894;42.768;23.404;2024-02-14T08:18:15;58.47;;;28.30;;
11675;SDS011;5894;42.768;23.404;2024-02-14T08:20:42;35.03;;;19.07;;
11675;SDS011;5894;42.768;23.404;2024-02-14T08:23:08;19.93;;;12.63;;
11675;SDS011;5894;42.768;23.404;2024-02-14T08:25:37;13.13;;;10.53;;
11675;SDS011;5894;42.768;23.404;2024-02-14T08:28:04;13.57;;;10.43;;
11675;SDS011;5894;42.768;23.404;2024-02-14T08:30:32;14.70;;;9.70;;
11675;SDS011;5894;42.768;23.404;2024-02-14T08:32:59;13.93;;;9.97;;
11675;SDS011;5894;42.768;23.404;2024-02-14T08:35:26;14.43;;;9.50;;
11675;SDS011;5894;42.768;23.404;2024-02-14T08:37:53;11.93;;;8.73;;
11675;SDS011;5894;42.768;23.404;2024-02-14T08:40:20;11.87;;;8.90;;
11675;SDS011;5894;42.768;23.404;2024-02-14T08:42:48;10.07;;;8.03;;
11675;SDS011;5894;42.768;23.404;2024-02-14T08:45:15;10.50;;;7.73;;
11675;SDS011;5894;42.768;23.404;2024-02-14T08:47:43;8.70;;;7.70;;
11675;SDS011;5894;42.768;23.404;2024-02-14T08:50:10;8.93;;;7.73;;
11675;SDS011;5894;42.768;23.404;2024-02-14T08:52:37;9.23;;;7.23;;
11675;SDS011;5894;42.768;23.404;2024-02-14T08:55:04;10.57;;;8.10;;
11675;SDS011;5894;42.768;23.404;2024-02-14T08:57:36;10.37;;;8.17;;
11675;SDS011;5894;42.768;23.404;2024-02-14T09:00:05;8.83;;;7.20;;
11675;SDS011;5894;42.768;23.404;2024-02-14T09:02:35;10.83;;;7.43;;
11675;SDS011;5894;42.768;23.404;2024-02-14T09:05:02;10.50;;;7.53;;
11675;SDS011;5894;42.768;23.404;2024-02-14T09:07:31;9.23;;;7.70;;
11675;SDS011;5894;42.768;23.404;2024-02-14T09:09:59;10.90;;;7.03;;
11675;SDS011;5894;42.768;23.404;2024-02-14T09:12:26;11.37;;;7.80;;
11675;SDS011;5894;42.768;23.404;2024-02-14T09:14:53;9.27;;;7.33;;
11675;SDS011;5894;42.768;23.404;2024-02-14T09:17:21;8.97;;;7.70;;
11675;SDS011;5894;42.768;23.404;2024-02-14T09:19:48;8.97;;;7.33;;
11675;SDS011;5894;42.768;23.404;2024-02-14T09:22:16;10.40;;;8.27;;
11675;SDS011;5894;42.768;23.404;2024-02-14T09:24:46;9.37;;;7.00;;
11675;SDS011;5894;42.768;23.404;2024-02-14T09:27:13;8.27;;;7.17;;
11675;SDS011;5894;42.768;23.404;2024-02-14T09:29:40;9.63;;;7.93;;
11675;SDS011;5894;42.768;23.404;2024-02-14T09:32:07;9.83;;;7.50;;
11675;SDS011;5894;42.768;23.404;2024-02-14T09:34:35;8.63;;;6.63;;
11675;SDS011;5894;42.768;23.404;2024-02-14T09:37:02;9.80;;;7.93;;
11675;SDS011;5894;42.768;23.404;2024-02-14T09:39:31;8.70;;;6.90;;
11675;SDS011;5894;42.768;23.404;2024-02-14T09:42:01;8.47;;;7.40;;
11675;SDS011;5894;42.768;23.404;2024-02-14T09:44:35;9.40;;;8.00;;
11675;SDS011;5894;42.768;23.404;2024-02-14T09:47:04;10.10;;;7.27;;
11675;SDS011;5894;42.768;23.404;2024-02-14T09:49:32;10.20;;;7.50;;
11675;SDS011;5894;42.768;23.404;2024-02-14T09:52:07;8.20;;;7.23;;
11675;SDS011;5894;42.768;23.404;2024-02-14T09:54:42;9.80;;;7.83;;
11675;SDS011;5894;42.768;23.404;2024-02-14T09:57:10;13.10;;;9.30;;
11675;SDS011;5894;42.768;23.404;2024-02-14T09:59:40;10.90;;;8.40;;
11675;SDS011;5894;42.768;23.404;2024-02-14T10:02:08;18.10;;;10.93;;
11675;SDS011;5894;42.768;23.404;2024-02-14T10:04:37;15.63;;;9.33;;
11675;SDS011;5894;42.768;23.404;2024-02-14T10:07:04;9.23;;;7.83;;
11675;SDS011;5894;42.768;23.404;2024-02-14T10:09:39;9.70;;;7.63;;
11675;SDS011;5894;42.768;23.404;2024-02-14T10:12:07;8.67;;;7.07;;
11675;SDS011;5894;42.768;23.404;2024-02-14T10:14:35;9.37;;;7.23;;
11675;SDS011;5894;42.768;23.404;2024-02-14T10:17:02;9.30;;;6.73;;
11675;SDS011;5894;42.768;23.404;2024-02-14T10:19:30;9.40;;;6.80;;
11675;SDS011;5894;42.768;23.404;2024-02-14T10:21:59;8.13;;;6.97;;
11675;SDS011;5894;42.768;23.404;2024-02-14T10:24:28;11.40;;;8.37;;
11675;SDS011;5894;42.768;23.404;2024-02-14T10:26:56;11.13;;;8.27;;
11675;SDS011;5894;42.768;23.404;2024-02-14T10:29:23;8.93;;;7.00;;
11675;SDS011;5894;42.768;23.404;2024-02-14T10:31:50;10.10;;;7.50;;
11675;SDS011;5894;42.768;23.404;2024-02-14T10:34:17;10.63;;;8.10;;
11675;SDS011;5894;42.768;23.404;2024-02-14T10:36:45;9.23;;;7.87;;
11675;SDS011;5894;42.768;23.404;2024-02-14T10:39:15;9.00;;;7.00;;
11675;SDS011;5894;42.768;23.404;2024-02-14T10:41:47;11.23;;;7.37;;
11675;SDS011;5894;42.768;23.404;2024-02-14T10:44:15;11.17;;;7.00;;
11675;SDS011;5894;42.768;23.404;2024-02-14T10:46:42;9.13;;;7.23;;
11675;SDS011;5894;42.768;23.404;2024-02-14T10:49:12;9.57;;;7.00;;
11675;SDS011;5894;42.768;23.404;2024-02-14T10:51:42;9.90;;;7.07;;
11675;SDS011;5894;42.768;23.404;2024-02-14T10:54:15;9.87;;;7.10;;
11675;SDS011;5894;42.768;23.404;2024-02-14T10:56:44;9.07;;;6.70;;
11675;SDS011;5894;42.768;23.404;2024-02-14T10:59:15;8.83;;;7.30;;
11675;SDS011;5894;42.768;23.404;2024-02-14T11:01:45;8.80;;;6.90;;
11675;SDS011;5894;42.768;23.404;2024-02-14T11:04:13;8.57;;;7.17;;
11675;SDS011;5894;42.768;23.404;2024-02-14T11:06:44;9.37;;;6.90;;
11675;SDS011;5894;42.768;23.404;2024-02-14T11:09:12;10.47;;;6.70;;
11675;SDS011;5894;42.768;23.404;2024-02-14T11:11:42;10.90;;;7.97;;
11675;SDS011;5894;42.768;23.404;2024-02-14T11:14:10;11.43;;;8.23;;
11675;SDS011;5894;42.768;23.404;2024-02-14T11:16:38;9.77;;;7.67;;
11675;SDS011;5894;42.768;23.404;2024-02-14T11:19:05;12.90;;;7.50;;
11675;SDS011;5894;42.768;23.404;2024-02-14T11:21:35;8.47;;;6.93;;
11675;SDS011;5894;42.768;23.404;2024-02-14T11:24:06;8.67;;;6.77;;
11675;SDS011;5894;42.768;23.404;2024-02-14T11:26:38;9.23;;;6.77;;
11675;SDS011;5894;42.768;23.404;2024-02-14T11:29:07;9.93;;;6.67;;
11675;SDS011;5894;42.768;23.404;2024-02-14T11:31:35;8.33;;;7.30;;
11675;SDS011;5894;42.768;23.404;2024-02-14T11:34:03;8.47;;;6.77;;
11675;SDS011;5894;42.768;23.404;2024-02-14T11:36:31;9.27;;;6.77;;
11675;SDS011;5894;42.768;23.404;2024-02-14T11:39:02;7.87;;;6.20;;
11675;SDS011;5894;42.768;23.404;2024-02-14T11:41:30;8.37;;;6.53;;
11675;SDS011;5894;42.768;23.404;2024-02-14T11:44:00;7.87;;;6.47;;
11675;SDS011;5894;42.768;23.404;2024-02-14T11:46:31;6.83;;;5.97;;
11675;SDS011;5894;42.768;23.404;2024-02-14T11:48:58;7.83;;;6.37;;
11675;SDS011;5894;42.768;23.404;2024-02-14T11:51:27;9.50;;;6.67;;
11675;SDS011;5894;42.768;23.404;2024-02-14T11:53:55;8.00;;;6.60;;
11675;SDS011;5894;42.768;23.404;2024-02-14T11:56:24;7.17;;;6.47;;
11675;SDS011;5894;42.768;23.404;2024-02-14T11:58:51;9.70;;;6.80;;
11675;SDS011;5894;42.768;23.404;2024-02-14T12:01:18;10.03;;;7.13;;
11675;SDS011;5894;42.768;23.404;2024-02-14T12:03:46;9.73;;;6.43;;
11675;SDS011;5894;42.768;23.404;2024-02-14T12:06:13;9.47;;;6.70;;
11675;SDS011;5894;42.768;23.404;2024-02-14T12:08:41;7.57;;;6.00;;
11675;SDS011;5894;42.768;23.404;2024-02-14T12:11:08;7.43;;;6.50;;
11675;SDS011;5894;42.768;23.404;2024-02-14T12:13:35;7.70;;;6.20;;
11675;SDS011;5894;42.768;23.404;2024-02-14T12:16:03;8.53;;;6.50;;
11675;SDS011;5894;42.768;23.404;2024-02-14T12:18:34;8.00;;;6.20;;
11675;SDS011;5894;42.768;23.404;2024-02-14T12:21:05;8.50;;;6.90;;
11675;SDS011;5894;42.768;23.404;2024-02-14T12:23:34;8.73;;;7.30;;
11675;SDS011;5894;42.768;23.404;2024-02-14T12:26:01;8.17;;;6.67;;
11675;SDS011;5894;42.768;23.404;2024-02-14T12:28:29;9.50;;;7.10;;
11675;SDS011;5894;42.768;23.404;2024-02-14T12:30:57;8.80;;;7.07;;
11675;SDS011;5894;42.768;23.404;2024-02-14T12:33:24;9.50;;;6.83;;
11675;SDS011;5894;42.768;23.404;2024-02-14T12:35:52;9.30;;;6.70;;
11675;SDS011;5894;42.768;23.404;2024-02-14T12:38:23;8.73;;;5.87;;
11675;SDS011;5894;42.768;23.404;2024-02-14T12:40:51;7.43;;;5.83;;
11675;SDS011;5894;42.768;23.404;2024-02-14T12:43:18;9.00;;;6.53;;
11675;SDS011;5894;42.768;23.404;2024-02-14T12:45:45;9.27;;;6.53;;
11675;SDS011;5894;42.768;23.404;2024-02-14T12:48:13;7.33;;;6.17;;
11675;SDS011;5894;42.768;23.404;2024-02-14T12:50:40;9.63;;;6.60;;
11675;SDS011;5894;42.768;23.404;2024-02-14T12:53:13;8.57;;;6.60;;
11675;SDS011;5894;42.768;23.404;2024-02-14T12:55:42;7.80;;;6.30;;
11675;SDS011;5894;42.768;23.404;2024-02-14T12:58:09;7.60;;;5.57;;
11675;SDS011;5894;42.768;23.404;2024-02-14T13:00:36;8.53;;;5.50;;
11675;SDS011;5894;42.768;23.404;2024-02-14T13:03:03;6.43;;;5.60;;
11675;SDS011;5894;42.768;23.404;2024-02-14T13:05:30;7.23;;;5.57;;
11675;SDS011;5894;42.768;23.404;2024-02-14T13:07:57;9.07;;;6.70;;
11675;SDS011;5894;42.768;23.404;2024-02-14T13:10:25;11.07;;;8.13;;
11675;SDS011;5894;42.768;23.404;2024-02-14T13:12:54;11.37;;;7.67;;
11675;SDS011;5894;42.768;23.404;2024-02-14T13:15:21;8.57;;;7.03;;
11675;SDS011;5894;42.768;23.404;2024-02-14T13:17:48;8.93;;;6.10;;
11675;SDS011;5894;42.768;23.404;2024-02-14T13:20:15;10.10;;;6.23;;
11675;SDS011;5894;42.768;23.404;2024-02-14T13:22:41;8.10;;;6.60;;
11675;SDS011;5894;42.768;23.404;2024-02-14T13:25:08;12.43;;;8.57;;
11675;SDS011;5894;42.768;23.404;2024-02-14T13:27:36;11.67;;;8.80;;
11675;SDS011;5894;42.768;23.404;2024-02-14T13:30:05;10.40;;;8.07;;
11675;SDS011;5894;42.768;23.404;2024-02-14T13:32:33;10.23;;;7.60;;
11675;SDS011;5894;42.768;23.404;2024-02-14T13:35:00;9.93;;;7.47;;
11675;SDS011;5894;42.768;23.404;2024-02-14T13:37:27;10.50;;;7.47;;
11675;SDS011;5894;42.768;23.404;2024-02-14T13:39:54;12.00;;;7.27;;
11675;SDS011;5894;42.768;23.404;2024-02-14T13:42:21;10.10;;;6.87;;
11675;SDS011;5894;42.768;23.404;2024-02-14T13:44:49;9.13;;;6.77;;
11675;SDS011;5894;42.768;23.404;2024-02-14T13:47:19;9.77;;;6.60;;
11675;SDS011;5894;42.768;23.404;2024-02-14T13:49:47;8.80;;;6.67;;
11675;SDS011;5894;42.768;23.404;2024-02-14T13:52:14;9.73;;;7.13;;
11675;SDS011;5894;42.768;23.404;2024-02-14T13:54:43;13.00;;;7.00;;
11675;SDS011;5894;42.768;23.404;2024-02-14T13:57:10;11.90;;;7.47;;
11675;SDS011;5894;42.768;23.404;2024-02-14T13:59:38;11.13;;;7.30;;
11675;SDS011;5894;42.768;23.404;2024-02-14T14:02:04;9.93;;;6.83;;
11675;SDS011;5894;42.768;23.404;2024-02-14T14:04:33;13.10;;;8.57;;
11675;SDS011;5894;42.768;23.404;2024-02-14T14:07:01;10.87;;;7.73;;
11675;SDS011;5894;42.768;23.404;2024-02-14T14:09:29;9.33;;;7.23;;
11675;SDS011;5894;42.768;23.404;2024-02-14T14:11:57;14.27;;;9.03;;
11675;SDS011;5894;42.768;23.404;2024-02-14T14:14:24;12.20;;;8.90;;
11675;SDS011;5894;42.768;23.404;2024-02-14T14:16:52;12.37;;;8.83;;
11675;SDS011;5894;42.768;23.404;2024-02-14T14:19:19;10.97;;;8.73;;
11675;SDS011;5894;42.768;23.404;2024-02-14T14:21:47;12.23;;;8.80;;
11675;SDS011;5894;42.768;23.404;2024-02-14T14:24:14;9.63;;;8.30;;
11675;SDS011;5894;42.768;23.404;2024-02-14T14:26:41;12.47;;;9.47;;
11675;SDS011;5894;42.768;23.404;2024-02-14T14:29:08;20.43;;;15.40;;
11675;SDS011;5894;42.768;23.404;2024-02-14T14:31:36;28.27;;;20.03;;
11675;SDS011;5894;42.768;23.404;2024-02-14T14:34:02;32.93;;;23.90;;
11675;SDS011;5894;42.768;23.404;2024-02-14T14:36:29;49.73;;;32.63;;
11675;SDS011;5894;42.768;23.404;2024-02-14T14:38:58;45.50;;;28.97;;
11675;SDS011;5894;42.768;23.404;2024-02-14T14:41:25;44.27;;;27.60;;
11675;SDS011;5894;42.768;23.404;2024-02-14T14:43:53;42.13;;;26.53;;